createdAt,value
2022-12-22T00:01:49.759Z,58.10
2022-12-22T00:05:10.818Z,56.22
2022-12-22T00:08:31.980Z,50.67
2022-12-22T00:11:53.043Z,45.83
2022-12-22T00:15:13.990Z,41.45
2022-12-22T00:18:35.860Z,44.97
2022-12-22T00:21:56.572Z,44.00
2022-12-22T00:25:17.489Z,43.10
2022-12-22T00:28:38.437Z,41.67
2022-12-22T00:32:00.455Z,41.42
2022-12-22T00:35:21.461Z,43.10
2022-12-22T00:38:42.533Z,46.45
2022-12-22T00:42:03.476Z,44.83
2022-12-22T00:45:25.012Z,46.47
2022-12-22T00:48:45.679Z,46.05
2022-12-22T00:52:06.915Z,46.27
2022-12-22T00:55:32.676Z,42.95
2022-12-22T00:58:53.987Z,46.40
2022-12-22T01:02:15.100Z,43.90
2022-12-22T01:05:36.527Z,44.50
2022-12-22T01:08:58.093Z,42.20
2022-12-22T01:12:19.737Z,40.17
2022-12-22T01:15:41.018Z,48.28
2022-12-22T01:19:02.099Z,38.05
2022-12-22T01:22:28.615Z,39.08
2022-12-22T01:25:49.661Z,44.40
2022-12-22T01:29:10.744Z,38.63
2022-12-22T01:32:33.019Z,44.92
2022-12-22T01:35:54.141Z,52.42
2022-12-22T01:39:15.078Z,48.17
2022-12-22T01:42:36.441Z,51.87
2022-12-22T01:45:57.594Z,52.08
2022-12-22T01:49:18.804Z,54.70
2022-12-22T01:52:43.057Z,54.72
2022-12-22T01:56:04.120Z,62.35
2022-12-22T01:59:25.088Z,70.43
2022-12-22T02:02:48.569Z,64.13
2022-12-22T02:06:38.863Z,68.28
2022-12-22T02:10:13.469Z,64.97
2022-12-22T02:14:03.104Z,72.65
2022-12-22T02:17:53.057Z,72.47
2022-12-22T02:21:22.757Z,72.50
2022-12-22T02:24:51.798Z,79.05
2022-12-22T02:28:14.013Z,69.45
2022-12-22T02:31:35.006Z,69.72
2022-12-22T02:34:56.185Z,69.20
2022-12-22T02:38:26.265Z,69.53
2022-12-22T02:41:52.934Z,70.57
2022-12-22T02:45:26.296Z,71.70
2022-12-22T02:49:09.101Z,76.40
2022-12-22T02:52:46.102Z,72.67
2022-12-22T02:56:06.978Z,63.72
2022-12-22T02:59:28.130Z,66.78
2022-12-22T03:02:49.190Z,55.15
2022-12-22T03:06:09.991Z,63.95
2022-12-22T03:09:31.127Z,58.63
2022-12-22T03:12:52.273Z,63.45
2022-12-22T03:16:13.706Z,60.22
2022-12-22T03:19:34.501Z,56.45
2022-12-22T03:22:55.316Z,56.63
2022-12-22T03:25:57.898Z,60.33
2022-12-22T03:29:00.377Z,58.38
2022-12-22T03:32:02.992Z,53.95
2022-12-22T03:35:05.848Z,53.55
2022-12-22T03:38:08.350Z,52.13
2022-12-22T03:41:30.783Z,52.40
2022-12-22T03:44:51.942Z,53.83
2022-12-22T03:47:54.437Z,50.33
2022-12-22T03:50:57.267Z,53.33
2022-12-22T03:53:59.974Z,61.53
2022-12-22T03:57:02.419Z,54.77
2022-12-22T04:00:05.883Z,67.05
2022-12-22T04:03:14.817Z,62.67
2022-12-22T04:06:18.103Z,55.67
2022-12-22T04:09:22.521Z,49.53
2022-12-22T04:12:43.697Z,50.53
2022-12-22T04:15:46.203Z,52.50
2022-12-22T04:18:48.773Z,57.47
2022-12-22T04:21:51.289Z,61.75
2022-12-22T04:24:53.732Z,53.17
2022-12-22T04:27:56.180Z,51.67
2022-12-22T04:30:58.620Z,58.85
2022-12-22T04:34:01.063Z,60.55
2022-12-22T04:37:13.058Z,62.00
2022-12-22T04:40:20.793Z,71.18
2022-12-22T04:43:23.312Z,60.17
2022-12-22T04:46:25.885Z,62.53
2022-12-22T04:49:28.450Z,59.70
2022-12-22T04:52:30.892Z,58.67
2022-12-22T04:55:33.423Z,59.53
2022-12-22T04:58:36.268Z,63.90
2022-12-22T05:01:38.870Z,81.00
2022-12-22T05:04:41.308Z,66.20
2022-12-22T05:07:44.170Z,66.18
2022-12-22T05:10:46.824Z,86.22
2022-12-22T05:13:49.223Z,77.53
2022-12-22T05:16:51.899Z,76.40
2022-12-22T05:19:54.393Z,73.85
2022-12-22T05:22:57.264Z,66.65
2022-12-22T05:25:59.798Z,62.35
2022-12-22T05:29:02.167Z,53.43
2022-12-22T05:32:04.672Z,53.97
2022-12-22T05:35:08.025Z,63.22
2022-12-22T05:38:10.468Z,54.25
2022-12-22T05:41:13.376Z,57.83
2022-12-22T05:44:15.877Z,69.07
2022-12-22T05:47:18.323Z,67.07
2022-12-22T05:50:23.538Z,70.57
2022-12-22T05:53:34.338Z,71.18
2022-12-22T05:56:36.824Z,109.38
2022-12-22T05:59:39.525Z,84.27
2022-12-22T06:02:42.893Z,72.93
2022-12-22T06:05:45.480Z,65.07
2022-12-22T06:08:47.914Z,56.88
2022-12-22T06:11:50.759Z,61.45
2022-12-22T06:14:53.174Z,58.67
2022-12-22T06:17:55.576Z,58.35
2022-12-22T06:20:58.087Z,64.43
2022-12-22T06:24:00.477Z,56.65
2022-12-22T06:27:03.166Z,62.03
2022-12-22T06:30:06.353Z,59.37
2022-12-22T06:33:08.920Z,57.95
2022-12-22T06:36:11.757Z,67.47
2022-12-22T06:39:16.017Z,80.10
2022-12-22T06:42:36.994Z,70.35
2022-12-22T06:45:41.513Z,72.13
2022-12-22T06:48:43.984Z,75.30
2022-12-22T06:51:46.814Z,77.70
2022-12-22T06:54:49.232Z,92.68
2022-12-22T06:57:51.901Z,82.07
2022-12-22T07:00:56.498Z,108.47
2022-12-22T07:03:59.052Z,80.53
2022-12-22T07:07:01.587Z,66.80
2022-12-22T07:10:05.398Z,64.13
2022-12-22T07:13:19.499Z,52.58
2022-12-22T07:16:22.296Z,54.73
2022-12-22T07:19:24.909Z,47.65
2022-12-22T07:22:30.469Z,46.80
2022-12-22T07:25:33.902Z,41.80
2022-12-22T07:28:38.328Z,47.50
2022-12-22T07:31:40.791Z,40.50
2022-12-22T07:34:43.433Z,47.70
2022-12-22T07:37:48.098Z,49.08
2022-12-22T07:41:04.654Z,51.38
2022-12-22T07:44:07.938Z,51.15
2022-12-22T07:47:10.359Z,122.47
2022-12-22T07:50:25.752Z,129.32
2022-12-22T07:53:28.357Z,79.50
2022-12-22T07:56:30.819Z,71.28
2022-12-22T07:59:33.229Z,78.32
2022-12-22T08:02:39.183Z,75.10
2022-12-22T08:05:41.889Z,69.85
2022-12-22T08:08:44.867Z,59.10
2022-12-22T08:11:49.242Z,64.72
2022-12-22T08:14:51.906Z,68.82
2022-12-22T08:17:54.319Z,96.13
2022-12-22T08:20:58.535Z,108.95
2022-12-22T08:24:00.997Z,125.43
2022-12-22T08:27:06.476Z,102.80
2022-12-22T08:30:10.261Z,85.35
2022-12-22T08:33:17.749Z,86.80
2022-12-22T08:36:20.320Z,84.28
2022-12-22T08:39:24.023Z,69.47
2022-12-22T08:42:26.744Z,72.28
2022-12-22T08:45:29.208Z,78.22
2022-12-22T08:48:31.821Z,77.93
2022-12-22T08:51:34.350Z,75.40
2022-12-22T08:54:36.835Z,71.57
2022-12-22T08:57:39.274Z,84.93
2022-12-22T09:00:42.559Z,87.80
2022-12-22T09:03:49.466Z,75.30
2022-12-22T09:06:53.498Z,81.03
2022-12-22T09:09:57.525Z,86.60
2022-12-22T09:13:00.001Z,81.93
2022-12-22T09:16:06.788Z,82.32
2022-12-22T09:19:09.384Z,87.23
2022-12-22T09:22:11.816Z,75.70
2022-12-22T09:25:14.722Z,84.90
2022-12-22T09:28:17.552Z,96.88
2022-12-22T09:31:21.700Z,92.05
2022-12-22T09:34:27.275Z,80.57
2022-12-22T09:37:29.712Z,73.38
2022-12-22T09:40:34.783Z,86.72
2022-12-22T09:43:37.555Z,90.03
2022-12-22T09:46:40.297Z,91.80
2022-12-22T09:49:42.865Z,101.13
2022-12-22T09:52:51.770Z,99.13
2022-12-22T09:55:54.203Z,90.10
2022-12-22T09:58:57.149Z,106.13
2022-12-22T10:02:42.325Z,109.28
2022-12-22T10:06:01.866Z,100.40
2022-12-22T10:09:48.317Z,91.50
2022-12-22T10:12:45.717Z,96.13
2022-12-22T10:15:48.473Z,88.45
2022-12-22T10:19:11.966Z,77.38
2022-12-22T10:22:41.665Z,90.27
2022-12-22T10:29:28.832Z,49.38
2022-12-22T10:32:31.662Z,63.15
2022-12-22T10:35:50.913Z,63.78
2022-12-22T10:39:00.383Z,68.77
2022-12-22T10:42:13.508Z,63.78
2022-12-22T10:45:18.748Z,62.10
2022-12-22T10:48:40.128Z,62.38
2022-12-22T10:51:44.520Z,55.22
2022-12-22T10:54:47.428Z,54.57
2022-12-22T10:57:50.483Z,58.55
2022-12-22T11:01:04.465Z,50.75
2022-12-22T11:04:24.938Z,50.47
2022-12-22T11:07:29.195Z,60.35
2022-12-22T11:11:01.278Z,62.30
2022-12-22T11:14:06.978Z,61.40
2022-12-22T11:17:11.731Z,63.67
2022-12-22T11:20:20.958Z,63.60
2022-12-22T11:23:48.285Z,64.70
2022-12-22T11:27:18.077Z,67.70
2022-12-22T11:30:24.795Z,67.25
2022-12-22T11:33:45.441Z,55.95
2022-12-22T11:37:22.475Z,57.42
2022-12-22T11:40:48.407Z,58.83
2022-12-22T11:43:57.965Z,56.10
2022-12-22T11:47:05.581Z,58.97
2022-12-22T11:51:01.237Z,62.63
2022-12-22T11:54:20.261Z,62.17
2022-12-22T11:57:47.198Z,58.22
2022-12-22T12:01:15.373Z,71.80
2022-12-22T12:04:48.027Z,58.22
2022-12-22T12:07:50.429Z,67.90
2022-12-22T12:11:21.009Z,78.57
2022-12-22T12:14:43.685Z,89.43
2022-12-22T12:18:18.300Z,82.93
2022-12-22T12:21:23.461Z,70.07
2022-12-22T12:24:47.313Z,64.97
2022-12-22T12:28:01.522Z,63.65
2022-12-22T12:31:05.322Z,66.32
2022-12-22T12:34:11.026Z,65.53
2022-12-22T12:37:37.972Z,61.58
2022-12-22T12:40:53.216Z,69.30
2022-12-22T12:43:56.219Z,73.47
2022-12-22T12:47:27.571Z,65.07
2022-12-22T12:50:34.268Z,66.77
2022-12-22T12:54:15.265Z,75.40
2022-12-22T12:57:26.328Z,57.40
2022-12-22T13:00:31.121Z,52.88
2022-12-22T13:04:02.671Z,54.90
2022-12-22T13:06:57.115Z,53.83
2022-12-22T13:10:19.317Z,52.58
2022-12-22T13:13:21.765Z,60.42
2022-12-22T13:16:27.329Z,59.90
2022-12-22T13:19:30.703Z,67.68
2022-12-22T13:22:33.417Z,63.83
2022-12-22T13:25:58.909Z,67.22
2022-12-22T13:29:23.841Z,73.93
2022-12-22T13:32:30.432Z,70.72
2022-12-22T13:35:40.180Z,74.43
2022-12-22T13:38:47.259Z,72.60
2022-12-22T13:41:50.361Z,76.13
2022-12-22T13:44:53.244Z,73.40
2022-12-22T13:47:55.971Z,76.43
2022-12-22T13:51:01.654Z,102.03
2022-12-22T13:54:17.141Z,80.07
2022-12-22T13:57:21.531Z,74.68
2022-12-22T14:00:25.886Z,68.90
2022-12-22T14:03:58.316Z,83.25
2022-12-22T14:06:50.905Z,91.38
2022-12-22T14:09:56.366Z,84.57
2022-12-22T14:12:58.970Z,82.85
2022-12-22T14:16:02.906Z,89.75
2022-12-22T14:19:05.679Z,78.05
2022-12-22T14:22:11.411Z,97.18
2022-12-22T14:25:16.951Z,73.67
2022-12-22T14:28:25.205Z,75.22
2022-12-22T14:31:27.787Z,75.18
2022-12-22T14:34:32.641Z,74.68
2022-12-22T14:37:36.458Z,70.93
2022-12-22T14:40:41.861Z,69.93
2022-12-22T14:43:49.129Z,72.43
2022-12-22T14:47:16.480Z,84.72
2022-12-22T14:50:21.163Z,94.95
2022-12-22T14:53:36.722Z,118.63
2022-12-22T14:56:47.637Z,127.97
2022-12-22T15:00:22.356Z,88.93
2022-12-22T15:03:24.881Z,73.93
2022-12-22T15:06:27.725Z,155.35
2022-12-22T15:10:13.220Z,142.80
2022-12-22T15:12:58.903Z,141.07
2022-12-22T15:16:01.968Z,100.80
2022-12-22T15:19:04.939Z,95.88
2022-12-22T15:22:08.102Z,94.78
2022-12-22T15:25:19.140Z,117.85
2022-12-22T15:28:21.620Z,120.70
2022-12-22T15:31:24.166Z,125.85
2022-12-22T15:34:28.832Z,167.70
2022-12-22T15:37:31.266Z,133.02
2022-12-22T15:40:37.498Z,168.07
2022-12-22T15:43:58.352Z,158.70
2022-12-22T15:47:01.719Z,115.57
2022-12-22T15:50:04.754Z,92.00
2022-12-22T15:53:11.030Z,93.70
2022-12-22T15:56:18.228Z,103.82
2022-12-22T15:59:23.923Z,103.80
2022-12-22T16:02:26.523Z,95.40
2022-12-22T16:05:29.038Z,93.20
2022-12-22T16:08:37.733Z,101.65
2022-12-22T16:11:40.247Z,104.13
2022-12-22T16:14:50.016Z,95.80
2022-12-22T16:17:53.176Z,94.13
2022-12-22T16:20:56.251Z,95.30
2022-12-22T16:24:00.503Z,112.93
2022-12-22T16:27:03.500Z,98.05
2022-12-22T16:30:19.392Z,96.00
2022-12-22T16:33:21.898Z,84.00
2022-12-22T16:36:24.272Z,98.10
2022-12-22T16:39:26.635Z,90.47
2022-12-22T16:45:49.919Z,100.57
2022-12-22T16:48:54.584Z,102.03
2022-12-22T16:51:57.015Z,98.90
2022-12-22T16:54:59.569Z,101.68
2022-12-22T16:58:05.545Z,102.75
2022-12-22T17:01:39.456Z,103.97
2022-12-22T17:04:42.020Z,109.63
2022-12-22T17:07:44.473Z,108.60
2022-12-22T17:10:47.150Z,107.20
2022-12-22T17:13:51.027Z,109.82
2022-12-22T17:16:53.528Z,120.53
2022-12-22T17:19:55.921Z,112.68
2022-12-22T17:23:00.420Z,110.53
2022-12-22T17:26:06.549Z,110.13
2022-12-22T17:29:18.317Z,106.97
2022-12-22T17:32:21.735Z,111.87
2022-12-22T17:35:25.839Z,112.40
2022-12-22T17:38:28.996Z,113.10
2022-12-22T17:41:31.528Z,99.25
2022-12-22T17:44:33.993Z,107.63
2022-12-22T17:47:42.616Z,96.40
2022-12-22T17:50:49.976Z,96.18
2022-12-22T17:53:53.159Z,94.35
2022-12-22T17:57:01.052Z,90.22
2022-12-22T18:00:04.742Z,91.07
2022-12-22T18:03:17.735Z,95.30
2022-12-22T18:06:23.244Z,101.18
2022-12-22T18:09:26.540Z,79.65
2022-12-22T18:12:29.895Z,93.55
2022-12-22T18:15:32.406Z,78.40
2022-12-22T18:18:34.948Z,92.87
2022-12-22T18:21:37.659Z,92.53
2022-12-22T18:24:40.191Z,85.95
2022-12-22T18:27:43.128Z,91.45
2022-12-22T18:30:47.359Z,94.55
2022-12-22T18:33:50.266Z,96.93
2022-12-22T18:36:52.666Z,97.50
2022-12-22T18:39:55.144Z,95.93
2022-12-22T18:42:58.606Z,98.95
2022-12-22T18:46:01.163Z,109.95
2022-12-22T18:49:05.997Z,90.47
2022-12-22T18:52:19.506Z,99.53
2022-12-22T18:55:24.210Z,97.65
2022-12-22T18:58:27.308Z,96.45
2022-12-22T19:01:30.131Z,86.03
2022-12-22T19:04:32.956Z,105.70
2022-12-22T19:07:35.553Z,107.90
2022-12-22T19:10:41.727Z,97.43
2022-12-22T19:13:48.736Z,120.25
2022-12-22T19:16:51.324Z,121.65
2022-12-22T19:19:53.923Z,104.40
2022-12-22T19:22:56.621Z,116.40
2022-12-22T19:26:06.967Z,116.15
2022-12-22T19:29:12.725Z,92.15
2022-12-22T19:32:32.971Z,109.38
2022-12-22T19:35:35.560Z,113.80
2022-12-22T19:38:38.200Z,83.88
2022-12-22T19:41:43.541Z,92.93
2022-12-22T19:44:46.183Z,101.15
2022-12-22T19:47:49.111Z,99.57
2022-12-22T19:50:54.096Z,78.67
2022-12-22T19:53:56.728Z,109.65
2022-12-22T19:56:59.658Z,118.43
2022-12-22T20:00:02.159Z,93.45
2022-12-22T20:03:19.611Z,118.82
2022-12-22T20:06:22.349Z,126.17
2022-12-22T20:09:24.803Z,117.00
2022-12-22T20:12:37.673Z,131.25
2022-12-22T20:15:40.574Z,132.02
2022-12-22T20:18:44.191Z,138.02
2022-12-22T20:21:46.651Z,140.63
2022-12-22T20:24:50.124Z,125.63
2022-12-22T20:27:54.747Z,131.27
2022-12-22T20:31:01.637Z,129.88
2022-12-22T20:34:04.941Z,121.85
2022-12-22T20:37:14.060Z,118.87
2022-12-22T20:40:24.678Z,103.65
2022-12-22T20:43:29.022Z,97.65
2022-12-22T20:46:31.656Z,105.85
2022-12-22T20:49:34.362Z,111.80
2022-12-22T20:52:36.819Z,120.57
2022-12-22T20:55:40.287Z,113.07
2022-12-22T20:58:42.729Z,106.82
2022-12-22T21:01:46.641Z,116.53
2022-12-22T21:04:49.520Z,112.85
2022-12-22T21:07:52.060Z,91.23
2022-12-22T21:10:55.458Z,113.88
2022-12-22T21:13:58.459Z,115.90
2022-12-22T21:17:01.028Z,129.77
2022-12-22T21:20:03.784Z,126.40
2022-12-22T21:23:06.877Z,136.90
2022-12-22T21:26:31.100Z,134.07
2022-12-22T21:29:33.541Z,125.22
2022-12-22T21:32:35.944Z,131.70
2022-12-22T21:35:38.526Z,104.70
2022-12-22T21:38:41.013Z,144.30
2022-12-22T21:42:01.420Z,114.35
2022-12-22T21:45:04.628Z,121.97
2022-12-22T21:48:07.214Z,145.38
2022-12-22T21:51:11.945Z,147.38
2022-12-22T21:54:14.955Z,136.50
2022-12-22T21:57:17.371Z,148.02
2022-12-22T22:00:21.339Z,154.13
2022-12-22T22:03:23.814Z,142.27
2022-12-22T22:06:26.359Z,140.93
2022-12-22T22:09:28.822Z,147.70
2022-12-22T22:12:36.186Z,150.75
2022-12-22T22:15:38.695Z,132.07
2022-12-22T22:18:42.458Z,132.43
2022-12-22T22:21:46.117Z,121.38
2022-12-22T22:24:48.590Z,120.17
2022-12-22T22:27:51.357Z,116.78
2022-12-22T22:30:53.892Z,136.20
2022-12-22T22:33:56.766Z,153.93
2022-12-22T22:36:59.143Z,135.25
2022-12-22T22:40:01.688Z,140.27
2022-12-22T22:43:05.532Z,145.50
2022-12-22T22:46:07.940Z,132.80
2022-12-22T22:49:10.401Z,132.02
2022-12-22T22:52:12.759Z,135.15
2022-12-22T22:55:15.536Z,137.97
2022-12-22T22:58:18.048Z,131.65
2022-12-22T23:01:20.491Z,128.65
2022-12-22T23:04:23.342Z,127.40
2022-12-22T23:07:25.781Z,134.38
2022-12-22T23:10:28.479Z,136.37
2022-12-22T23:13:31.037Z,134.15
2022-12-22T23:16:38.111Z,140.02
2022-12-22T23:19:40.938Z,125.35
2022-12-22T23:22:43.687Z,126.80
2022-12-22T23:25:48.582Z,129.10
2022-12-22T23:28:51.452Z,121.07
2022-12-22T23:31:53.976Z,120.82
2022-12-22T23:34:56.453Z,123.32
2022-12-22T23:37:58.917Z,122.18
2022-12-22T23:41:03.961Z,119.27
2022-12-22T23:44:06.366Z,110.38
2022-12-22T23:47:08.941Z,125.45
2022-12-22T23:50:11.976Z,120.40
2022-12-22T23:53:16.395Z,125.30
2022-12-22T23:56:18.895Z,122.10
2022-12-22T23:59:21.364Z,115.70
